Time;durP1;ratioP1;P1;durP2;ratioP2;P2;SDS_P1;SDS_P2;PMS_P1;PMS_P2;Temp;Humidity;BMP_temperature;BMP_pressure;BME280_temperature;BME280_humidity;BME280_pressure;Samples;Min_cycle;Max_cycle;Signal;HPM_P1;HPM_P2
2023/01/13 05:44:12;;;;;;;0.30;0.30;;;;;;;;;;7386568;19;20619;-61
2023/01/13 05:46:37;;;;;;;0.30;0.30;;;;;;;;;;7388975;19;20125;-61
2023/01/13 05:49:04;;;;;;;0.30;0.30;;;;;;;;;;7387914;19;20120;-62
2023/01/13 05:51:29;;;;;;;0.30;0.30;;;;;;;;;;7389013;19;20140;-61
2023/01/13 05:53:54;;;;;;;0.30;0.30;;;;;;;;;;7385089;19;20144;-61
2023/01/13 05:56:20;;;;;;;0.30;0.30;;;;;;;;;;7389229;19;20117;-62
2023/01/13 05:58:45;;;;;;;0.20;0.20;;;;;;;;;;7386166;19;20494;-61
2023/01/13 06:01:10;;;;;;;0.30;0.30;;;;;;;;;;7385647;19;20192;-61
2023/01/13 06:03:36;;;;;;;0.20;0.20;;;;;;;;;;7386978;19;20141;-61
2023/01/13 06:06:02;;;;;;;0.30;0.30;;;;;;;;;;7388713;19;20146;-61
2023/01/13 06:08:28;;;;;;;0.30;0.30;;;;;;;;;;7385887;19;20145;-61
2023/01/13 06:10:54;;;;;;;0.53;0.50;;;;;;;;;;7384662;19;20441;-61
2023/01/13 06:13:19;;;;;;;0.40;0.40;;;;;;;;;;7387248;19;20144;-61
2023/01/13 06:15:44;;;;;;;0.40;0.40;;;;;;;;;;7389453;19;20490;-61
2023/01/13 06:18:10;;;;;;;0.40;0.40;;;;;;;;;;7384321;19;20473;-60
2023/01/13 06:20:35;;;;;;;2.07;0.60;;;;;;;;;;7388194;19;20121;-62
2023/01/13 06:23:00;;;;;;;0.40;0.40;;;;;;;;;;7392449;19;20128;-60
2023/01/13 06:26:05;;;;;;;0.30;0.30;;;;;;;;;;7395450;19;20140;-62
2023/01/13 06:28:32;;;;;;;0.23;0.23;;;;;;;;;;7387385;19;20133;-60
2023/01/13 06:31:00;;;;;;;0.30;0.30;;;;;;;;;;7391184;19;20121;-60
2023/01/13 06:33:29;;;;;;;0.83;0.57;;;;;;;;;;7392654;19;20477;-60
2023/01/13 06:36:01;;;;;;;0.30;0.30;;;;;;;;;;7387340;19;20125;-62
2023/01/13 06:38:27;;;;;;;0.30;0.30;;;;;;;;;;7389000;19;20730;-62
2023/01/13 06:40:53;;;;;;;0.33;0.33;;;;;;;;;;7396073;19;20149;-62
2023/01/13 06:43:21;;;;;;;0.30;0.30;;;;;;;;;;7392465;19;20145;-60
2023/01/13 06:45:50;;;;;;;0.73;0.60;;;;;;;;;;7394712;19;20129;-62
2023/01/13 06:48:17;;;;;;;0.30;0.30;;;;;;;;;;7391430;19;20125;-60
2023/01/13 06:50:42;;;;;;;0.33;0.33;;;;;;;;;;7384314;19;20148;-60
2023/01/13 06:53:08;;;;;;;0.47;0.40;;;;;;;;;;7385933;19;20200;-60
2023/01/13 06:55:34;;;;;;;0.30;0.30;;;;;;;;;;7385262;19;20136;-60
2023/01/13 06:57:59;;;;;;;0.40;0.40;;;;;;;;;;7374191;19;20136;-62
2023/01/13 07:00:26;;;;;;;0.67;0.67;;;;;;;;;;7388066;19;20549;-62
2023/01/13 07:02:51;;;;;;;0.40;0.40;;;;;;;;;;7381250;19;20135;-62
2023/01/13 07:05:17;;;;;;;0.40;0.40;;;;;;;;;;7389025;19;20505;-62
2023/01/13 07:07:43;;;;;;;0.40;0.40;;;;;;;;;;7390354;19;20464;-62
2023/01/13 07:10:11;;;;;;;0.30;0.30;;;;;;;;;;7391179;19;20125;-62
2023/01/13 07:15:17;;;;;;;0.50;0.50;;;;;;;;;;7391352;19;20117;-62
2023/01/13 07:15:24;;;;;;;0.30;0.30;;;;;;;;;;7391558;19;20145;-63
2023/01/13 07:17:49;;;;;;;0.40;0.40;;;;;;;;;;7383280;19;20149;-62
2023/01/13 07:20:15;;;;;;;0.30;0.30;;;;;;;;;;7381920;19;20137;-62
2023/01/13 07:22:41;;;;;;;0.33;0.33;;;;;;;;;;7389509;19;20125;-62
2023/01/13 07:25:07;;;;;;;0.20;0.20;;;;;;;;;;7389019;19;20156;-62
2023/01/13 07:27:32;;;;;;;0.30;0.30;;;;;;;;;;7385963;19;20136;-62
2023/01/13 07:29:57;;;;;;;0.20;0.20;;;;;;;;;;7386918;19;20608;-62
2023/01/13 07:32:22;;;;;;;0.67;0.67;;;;;;;;;;7391364;19;20137;-62
2023/01/13 07:34:48;;;;;;;0.20;0.20;;;;;;;;;;7378019;19;20152;-62
2023/01/13 07:37:13;;;;;;;0.20;0.20;;;;;;;;;;7390896;19;20128;-62
2023/01/13 07:39:38;;;;;;;0.20;0.20;;;;;;;;;;7389743;19;20487;-62
2023/01/13 07:44:48;;;;;;;0.30;0.30;;;;;;;;;;7389988;19;20165;-62
2023/01/13 07:47:13;;;;;;;0.30;0.30;;;;;;;;;;7392005;19;20132;-62
2023/01/13 07:49:38;;;;;;;0.20;0.20;;;;;;;;;;7387002;19;20125;-63
2023/01/13 07:52:04;;;;;;;0.20;0.20;;;;;;;;;;7391015;19;20129;-62
2023/01/13 07:54:29;;;;;;;0.20;0.20;;;;;;;;;;7388497;19;20141;-62
2023/01/13 07:56:55;;;;;;;0.30;0.30;;;;;;;;;;7389585;19;20607;-62
2023/01/13 07:59:21;;;;;;;0.30;0.30;;;;;;;;;;7390416;19;20121;-61
2023/01/13 08:01:46;;;;;;;0.30;0.30;;;;;;;;;;7391418;19;20586;-61
2023/01/13 08:04:11;;;;;;;0.20;0.20;;;;;;;;;;7390263;19;20678;-61
2023/01/13 08:06:38;;;;;;;0.20;0.20;;;;;;;;;;7389454;19;20118;-61
2023/01/13 08:09:04;;;;;;;0.30;0.30;;;;;;;;;;7383178;19;20620;-61
2023/01/13 08:11:29;;;;;;;0.20;0.20;;;;;;;;;;7379353;19;20129;-61
2023/01/13 08:13:56;;;;;;;0.20;0.20;;;;;;;;;;7388645;19;20152;-61
2023/01/13 08:16:22;;;;;;;0.20;0.20;;;;;;;;;;7388330;19;20595;-61
2023/01/13 08:18:47;;;;;;;0.30;0.30;;;;;;;;;;7390371;19;20129;-61
2023/01/13 08:21:13;;;;;;;0.20;0.20;;;;;;;;;;7382919;19;20593;-61
2023/01/13 08:23:40;;;;;;;0.20;0.20;;;;;;;;;;7388884;19;20667;-61
2023/01/13 08:26:09;;;;;;;0.20;0.20;;;;;;;;;;7388759;19;20129;-61
2023/01/13 08:28:34;;;;;;;0.40;0.37;;;;;;;;;;7389454;19;20128;-61
2023/01/13 08:31:01;;;;;;;0.30;0.30;;;;;;;;;;7387363;19;20599;-61
2023/01/13 08:33:27;;;;;;;0.23;0.23;;;;;;;;;;7387421;19;20595;-61
2023/01/13 08:35:53;;;;;;;0.30;0.30;;;;;;;;;;7388686;19;20615;-61
2023/01/13 08:38:19;;;;;;;0.20;0.20;;;;;;;;;;7387725;19;20145;-61
2023/01/13 08:40:44;;;;;;;0.40;0.40;;;;;;;;;;7386309;19;20121;-61
2023/01/13 08:43:09;;;;;;;0.20;0.20;;;;;;;;;;7382300;19;20173;-61
2023/01/13 08:45:35;;;;;;;0.30;0.30;;;;;;;;;;7386525;19;20178;-62
2023/01/13 08:48:01;;;;;;;0.20;0.20;;;;;;;;;;7390507;19;20124;-62
2023/01/13 08:50:27;;;;;;;0.20;0.20;;;;;;;;;;7387297;19;20127;-61
2023/01/13 08:52:52;;;;;;;0.20;0.20;;;;;;;;;;7383151;19;20176;-61
2023/01/13 08:55:17;;;;;;;0.30;0.30;;;;;;;;;;7392118;19;20224;-62
2023/01/13 08:57:43;;;;;;;0.83;0.83;;;;;;;;;;7389421;19;20113;-61
2023/01/13 09:00:09;;;;;;;0.30;0.30;;;;;;;;;;7389908;19;20595;-61
2023/01/13 09:02:35;;;;;;;0.30;0.30;;;;;;;;;;7382128;19;20490;-61
2023/01/13 09:05:02;;;;;;;0.30;0.30;;;;;;;;;;7384170;19;20152;-61
2023/01/13 09:07:29;;;;;;;0.40;0.40;;;;;;;;;;7388343;19;20583;-62
2023/01/13 09:09:55;;;;;;;0.50;0.50;;;;;;;;;;7374218;19;20161;-62
2023/01/13 09:15:05;;;;;;;0.20;0.20;;;;;;;;;;7367677;19;20659;-61
2023/01/13 09:17:31;;;;;;;0.30;0.30;;;;;;;;;;7377326;19;20136;-61
2023/01/13 09:19:56;;;;;;;0.23;0.23;;;;;;;;;;7376814;19;20721;-62
2023/01/13 09:22:25;;;;;;;0.27;0.27;;;;;;;;;;7386372;19;20507;-62
2023/01/13 09:24:51;;;;;;;0.33;0.33;;;;;;;;;;7377370;19;20763;-61
2023/01/13 09:27:16;;;;;;;0.30;0.30;;;;;;;;;;7383634;19;20109;-61
2023/01/13 09:29:42;;;;;;;0.23;0.23;;;;;;;;;;7389497;19;20125;-62
2023/01/13 09:32:10;;;;;;;0.37;0.37;;;;;;;;;;7391389;19;20480;-62
2023/01/13 09:37:19;;;;;;;0.20;0.20;;;;;;;;;;7391664;19;20123;-61
2023/01/13 09:39:45;;;;;;;0.20;0.20;;;;;;;;;;7390135;19;20125;-62
2023/01/13 09:45:14;;;;;;;0.33;0.33;;;;;;;;;;7389255;19;20181;-62
2023/01/13 09:47:51;;;;;;;0.23;0.23;;;;;;;;;;7390843;19;20140;-62
2023/01/13 09:50:25;;;;;;;0.30;0.30;;;;;;;;;;7388100;19;20123;-62
2023/01/13 09:52:51;;;;;;;0.30;0.30;;;;;;;;;;7390680;19;20134;-61
2023/01/13 09:55:31;;;;;;;0.20;0.20;;;;;;;;;;7391451;19;20373;-62
2023/01/13 09:57:57;;;;;;;0.23;0.23;;;;;;;;;;7396395;19;20121;-62
2023/01/13 10:00:26;;;;;;;0.30;0.30;;;;;;;;;;7395865;19;20141;-62
2023/01/13 10:03:24;;;;;;;0.40;0.40;;;;;;;;;;7398868;19;20145;-61
2023/01/13 10:05:55;;;;;;;0.20;0.20;;;;;;;;;;7394876;19;20156;-61
2023/01/13 10:08:28;;;;;;;0.30;0.30;;;;;;;;;;7397080;19;20133;-61
2023/01/13 10:13:58;;;;;;;0.30;0.30;;;;;;;;;;7395928;19;20174;-62
2023/01/13 10:16:30;;;;;;;0.53;0.53;;;;;;;;;;7397469;19;20156;-61
2023/01/13 10:19:07;;;;;;;0.20;0.20;;;;;;;;;;7395489;19;20121;-62
2023/01/13 10:22:01;;;;;;;0.20;0.20;;;;;;;;;;7396973;19;20148;-61
2023/01/13 10:24:48;;;;;;;0.63;0.63;;;;;;;;;;7389424;19;20944;-62
2023/01/13 10:27:24;;;;;;;0.50;0.50;;;;;;;;;;7386584;19;20148;-62
2023/01/13 10:29:49;;;;;;;0.70;0.70;;;;;;;;;;7379345;19;20125;-62
2023/01/13 10:32:14;;;;;;;0.30;0.30;;;;;;;;;;7385710;19;20558;-62
2023/01/13 10:34:50;;;;;;;0.20;0.20;;;;;;;;;;7375906;19;20145;-61
2023/01/13 10:37:20;;;;;;;0.20;0.20;;;;;;;;;;7392156;19;20125;-62
2023/01/13 10:39:47;;;;;;;0.20;0.20;;;;;;;;;;7391921;19;20125;-61
2023/01/13 10:42:15;;;;;;;0.23;0.23;;;;;;;;;;7397275;19;20125;-61
2023/01/13 10:44:53;;;;;;;0.30;0.30;;;;;;;;;;7394171;19;20159;-61
2023/01/13 10:47:33;;;;;;;0.30;0.30;;;;;;;;;;7396888;19;20129;-61
2023/01/13 10:50:07;;;;;;;0.30;0.30;;;;;;;;;;7392883;19;20117;-61
2023/01/13 10:52:40;;;;;;;0.30;0.30;;;;;;;;;;7396973;19;20140;-62
2023/01/13 10:55:32;;;;;;;0.30;0.30;;;;;;;;;;7393212;19;20145;-62
2023/01/13 10:58:10;;;;;;;0.33;0.33;;;;;;;;;;7395068;19;20133;-62
2023/01/13 11:00:36;;;;;;;0.20;0.20;;;;;;;;;;7396491;19;20121;-61
2023/01/13 11:03:19;;;;;;;0.30;0.30;;;;;;;;;;7393733;19;20453;-62
2023/01/13 11:05:58;;;;;;;0.30;0.30;;;;;;;;;;7394429;19;20121;-62
2023/01/13 11:08:30;;;;;;;0.20;0.20;;;;;;;;;;7391906;19;20152;-61
2023/01/13 11:10:57;;;;;;;0.33;0.33;;;;;;;;;;7392340;19;20180;-61
2023/01/13 11:13:30;;;;;;;0.40;0.40;;;;;;;;;;7394111;19;20192;-61
2023/01/13 11:16:12;;;;;;;0.20;0.20;;;;;;;;;;7389627;19;20124;-61
2023/01/13 11:18:50;;;;;;;0.40;0.40;;;;;;;;;;7392832;19;20560;-61
2023/01/13 11:21:21;;;;;;;0.40;0.40;;;;;;;;;;7386624;19;20129;-61
2023/01/13 11:23:51;;;;;;;0.30;0.30;;;;;;;;;;7392010;19;20161;-61
2023/01/13 11:26:20;;;;;;;0.20;0.20;;;;;;;;;;7393545;19;20123;-62
2023/01/13 11:28:53;;;;;;;0.30;0.30;;;;;;;;;;7393557;19;20132;-61
2023/01/13 11:31:57;;;;;;;0.20;0.20;;;;;;;;;;7394040;19;20121;-61
2023/01/13 11:34:32;;;;;;;0.20;0.20;;;;;;;;;;7392688;19;20172;-61
2023/01/13 11:36:59;;;;;;;0.27;0.27;;;;;;;;;;7394738;19;20120;-61
2023/01/13 11:39:52;;;;;;;0.20;0.20;;;;;;;;;;7392113;19;20471;-61
2023/01/13 11:42:24;;;;;;;0.30;0.30;;;;;;;;;;7394428;19;20583;-62
2023/01/13 11:45:01;;;;;;;0.20;0.20;;;;;;;;;;7391151;19;20510;-61
2023/01/13 11:47:27;;;;;;;0.30;0.30;;;;;;;;;;7393133;19;20132;-61
2023/01/13 11:49:52;;;;;;;0.20;0.20;;;;;;;;;;7390971;19;20463;-61
2023/01/13 11:52:22;;;;;;;0.20;0.20;;;;;;;;;;7392801;19;20125;-62
2023/01/13 11:54:56;;;;;;;0.20;0.20;;;;;;;;;;7391258;19;20181;-61
2023/01/13 11:57:31;;;;;;;0.20;0.20;;;;;;;;;;7394239;19;20193;-62
2023/01/13 12:00:14;;;;;;;0.30;0.30;;;;;;;;;;7393448;19;20124;-61
2023/01/13 12:03:17;;;;;;;0.27;0.27;;;;;;;;;;7393913;19;20451;-62
2023/01/13 12:06:01;;;;;;;0.27;0.27;;;;;;;;;;7393970;19;20137;-61
2023/01/13 12:08:26;;;;;;;0.30;0.30;;;;;;;;;;7392610;19;20146;-61
2023/01/13 12:11:13;;;;;;;0.30;0.30;;;;;;;;;;7392544;19;20125;-61
2023/01/13 12:13:58;;;;;;;0.30;0.30;;;;;;;;;;7391872;19;20236;-62
2023/01/13 12:16:30;;;;;;;0.20;0.20;;;;;;;;;;7393903;19;20125;-61
2023/01/13 12:19:17;;;;;;;0.30;0.30;;;;;;;;;;7393398;19;20132;-61
2023/01/13 12:22:05;;;;;;;0.30;0.30;;;;;;;;;;7391959;19;20511;-62
2023/01/13 12:24:39;;;;;;;0.30;0.30;;;;;;;;;;7390553;19;20153;-61
2023/01/13 12:27:11;;;;;;;0.30;0.30;;;;;;;;;;7392648;19;20152;-61
2023/01/13 12:29:37;;;;;;;0.20;0.20;;;;;;;;;;7389587;19;20125;-61
2023/01/13 12:32:11;;;;;;;0.27;0.27;;;;;;;;;;7391506;19;20132;-61
2023/01/13 12:34:47;;;;;;;0.30;0.30;;;;;;;;;;7390001;19;20156;-61
2023/01/13 12:37:25;;;;;;;0.30;0.30;;;;;;;;;;7390335;19;20490;-61
2023/01/13 12:40:09;;;;;;;0.30;0.30;;;;;;;;;;7391983;19;20120;-62
2023/01/13 12:45:36;;;;;;;0.23;0.23;;;;;;;;;;7392986;19;20116;-61
2023/01/13 12:48:01;;;;;;;0.30;0.30;;;;;;;;;;7392323;19;20132;-61
2023/01/13 12:50:27;;;;;;;0.20;0.20;;;;;;;;;;7388127;19;20124;-61
2023/01/13 12:52:56;;;;;;;0.20;0.20;;;;;;;;;;7391930;19;20129;-61
2023/01/13 12:55:22;;;;;;;0.20;0.20;;;;;;;;;;7392764;19;20631;-61
2023/01/13 12:58:03;;;;;;;0.40;0.40;;;;;;;;;;7390441;19;20121;-61
2023/01/13 13:00:55;;;;;;;0.20;0.20;;;;;;;;;;7382354;19;20153;-61
2023/01/13 13:03:31;;;;;;;0.30;0.30;;;;;;;;;;7388248;19;20183;-61
2023/01/13 13:06:05;;;;;;;0.20;0.20;;;;;;;;;;7388424;19;20138;-61
2023/01/13 13:09:05;;;;;;;0.30;0.30;;;;;;;;;;7387726;19;20127;-61
2023/01/13 13:14:40;;;;;;;0.20;0.20;;;;;;;;;;7382573;19;20522;-61
2023/01/13 13:17:26;;;;;;;0.30;0.30;;;;;;;;;;7384484;19;20144;-61
2023/01/13 13:19:52;;;;;;;0.50;0.50;;;;;;;;;;7382425;19;20121;-61
2023/01/13 13:22:27;;;;;;;0.30;0.30;;;;;;;;;;7372945;19;20217;-61
2023/01/13 13:24:55;;;;;;;0.30;0.30;;;;;;;;;;7386782;19;20147;-61
2023/01/13 13:27:25;;;;;;;0.27;0.27;;;;;;;;;;7381492;19;20137;-61
2023/01/13 13:29:57;;;;;;;0.20;0.20;;;;;;;;;;7386905;19;20136;-61
2023/01/13 13:32:41;;;;;;;0.20;0.20;;;;;;;;;;7382734;19;20484;-61
2023/01/13 13:35:12;;;;;;;0.30;0.30;;;;;;;;;;7387581;19;20494;-61
2023/01/13 13:49:06;;;;;;;0.30;0.30;;;;;;;;;;7386957;19;20230;-61
2023/01/13 13:51:36;;;;;;;0.20;0.20;;;;;;;;;;7385051;19;20565;-61
2023/01/13 13:54:02;;;;;;;0.40;0.40;;;;;;;;;;7384175;19;20616;-61
2023/01/13 13:56:31;;;;;;;0.47;0.47;;;;;;;;;;7386138;19;20135;-62
2023/01/13 13:58:56;;;;;;;0.30;0.30;;;;;;;;;;7384231;19;20545;-61
2023/01/13 14:01:29;;;;;;;0.30;0.30;;;;;;;;;;7384990;19;20125;-61
2023/01/13 14:04:13;;;;;;;0.20;0.20;;;;;;;;;;7368945;19;20559;-61
2023/01/13 14:06:52;;;;;;;0.30;0.30;;;;;;;;;;7378169;19;20166;-62
2023/01/13 14:09:18;;;;;;;0.30;0.30;;;;;;;;;;7381065;19;20146;-62
2023/01/13 14:11:59;;;;;;;0.30;0.30;;;;;;;;;;7384160;19;20148;-62
2023/01/13 14:14:25;;;;;;;0.20;0.20;;;;;;;;;;7369255;19;20153;-61
2023/01/13 14:16:50;;;;;;;0.20;0.20;;;;;;;;;;7378870;19;20157;-61
2023/01/13 14:19:30;;;;;;;0.30;0.30;;;;;;;;;;7376789;19;20136;-61
2023/01/13 14:21:57;;;;;;;0.23;0.23;;;;;;;;;;7385139;19;20157;-61
2023/01/13 14:24:23;;;;;;;0.20;0.20;;;;;;;;;;7374213;19;21467;-61
2023/01/13 14:26:50;;;;;;;0.50;0.50;;;;;;;;;;7384436;19;20131;-61
2023/01/13 14:29:19;;;;;;;0.30;0.30;;;;;;;;;;7366203;19;20213;-61
2023/01/13 14:31:45;;;;;;;0.30;0.30;;;;;;;;;;7369500;19;20125;-61
2023/01/13 14:34:11;;;;;;;0.20;0.20;;;;;;;;;;7372549;19;20152;-61
2023/01/13 14:36:37;;;;;;;0.20;0.20;;;;;;;;;;7374593;19;20147;-61
2023/01/13 14:39:02;;;;;;;0.20;0.20;;;;;;;;;;7373073;19;20128;-61
2023/01/13 14:41:36;;;;;;;0.50;0.50;;;;;;;;;;7386266;19;20228;-61
2023/01/13 14:44:03;;;;;;;0.20;0.20;;;;;;;;;;7390857;19;20149;-62
2023/01/13 14:46:39;;;;;;;0.30;0.30;;;;;;;;;;7391680;19;20148;-61
2023/01/13 14:49:10;;;;;;;0.30;0.30;;;;;;;;;;7390565;19;20603;-61
2023/01/13 14:51:35;;;;;;;0.20;0.20;;;;;;;;;;7391488;19;20222;-61
2023/01/13 14:54:01;;;;;;;0.30;0.30;;;;;;;;;;7390760;19;20252;-61
2023/01/13 14:56:47;;;;;;;0.20;0.20;;;;;;;;;;7390421;19;20132;-61
2023/01/13 14:59:44;;;;;;;0.20;0.20;;;;;;;;;;7391225;19;20602;-61
2023/01/13 15:02:28;;;;;;;0.20;0.20;;;;;;;;;;7392492;19;20145;-61
2023/01/13 15:05:17;;;;;;;0.40;0.40;;;;;;;;;;7392009;19;20155;-61
2023/01/13 15:08:11;;;;;;;0.30;0.30;;;;;;;;;;7393227;19;20140;-61
2023/01/13 15:10:58;;;;;;;0.20;0.20;;;;;;;;;;7389778;19;20125;-61
2023/01/13 15:13:36;;;;;;;0.40;0.40;;;;;;;;;;7384145;19;20212;-61
2023/01/13 15:16:04;;;;;;;0.20;0.20;;;;;;;;;;7390301;19;20129;-61
2023/01/13 15:18:30;;;;;;;1.53;1.07;;;;;;;;;;7384920;19;20157;-61
2023/01/13 15:20:55;;;;;;;0.23;0.23;;;;;;;;;;7381382;19;20113;-61
2023/01/13 15:23:20;;;;;;;0.20;0.20;;;;;;;;;;7363248;19;20174;-61
2023/01/13 15:25:46;;;;;;;0.20;0.20;;;;;;;;;;7374968;19;20121;-61
2023/01/13 15:28:18;;;;;;;0.20;0.20;;;;;;;;;;7381272;19;20125;-61
2023/01/13 15:30:43;;;;;;;0.30;0.30;;;;;;;;;;7372329;19;20886;-61
2023/01/13 15:33:11;;;;;;;0.20;0.20;;;;;;;;;;7381201;19;20129;-61
2023/01/13 15:35:38;;;;;;;0.30;0.30;;;;;;;;;;7369602;19;20508;-64
2023/01/13 15:38:09;;;;;;;0.30;0.30;;;;;;;;;;7380612;19;20129;-61
2023/01/13 15:40:34;;;;;;;0.20;0.20;;;;;;;;;;7379556;19;20136;-61
2023/01/13 15:48:31;;;;;;;0.20;0.20;;;;;;;;;;7371976;19;20168;-61
2023/01/13 15:50:56;;;;;;;0.30;0.30;;;;;;;;;;7376416;19;20125;-61
2023/01/13 15:53:21;;;;;;;0.20;0.20;;;;;;;;;;7384494;19;20165;-61
2023/01/13 15:55:50;;;;;;;0.30;0.30;;;;;;;;;;7390316;19;20147;-61
2023/01/13 15:58:18;;;;;;;0.20;0.20;;;;;;;;;;7370832;19;20729;-61
2023/01/13 16:00:44;;;;;;;0.20;0.20;;;;;;;;;;7374788;19;20125;-61
2023/01/13 16:03:13;;;;;;;0.20;0.20;;;;;;;;;;7383031;19;20148;-61
2023/01/13 16:05:39;;;;;;;0.30;0.30;;;;;;;;;;7376482;19;20133;-61
2023/01/13 16:08:17;;;;;;;0.30;0.30;;;;;;;;;;7391540;19;20133;-61
2023/01/13 16:10:43;;;;;;;0.30;0.30;;;;;;;;;;7379239;19;20140;-61
2023/01/13 16:13:09;;;;;;;0.20;0.20;;;;;;;;;;7369192;19;20484;-61
2023/01/13 16:15:35;;;;;;;0.20;0.20;;;;;;;;;;7385284;19;20569;-61
2023/01/13 16:18:02;;;;;;;0.20;0.20;;;;;;;;;;7374600;19;20149;-61
2023/01/13 16:20:28;;;;;;;0.40;0.40;;;;;;;;;;7366482;19;20619;-61
2023/01/13 16:22:53;;;;;;;0.20;0.20;;;;;;;;;;7375081;19;20129;-61
2023/01/13 16:25:21;;;;;;;0.30;0.30;;;;;;;;;;7388363;19;20125;-61
2023/01/13 16:27:47;;;;;;;0.20;0.20;;;;;;;;;;7383522;19;20229;-61
2023/01/13 16:30:34;;;;;;;0.30;0.30;;;;;;;;;;7389120;19;20132;-61
2023/01/13 16:33:01;;;;;;;0.30;0.30;;;;;;;;;;7385231;19;20160;-61
2023/01/13 16:35:27;;;;;;;0.30;0.30;;;;;;;;;;7376998;19;20120;-61
2023/01/13 16:37:57;;;;;;;0.30;0.30;;;;;;;;;;7370515;19;20125;-61
2023/01/13 16:40:32;;;;;;;0.30;0.30;;;;;;;;;;7377348;19;20599;-61
2023/01/13 16:42:59;;;;;;;0.20;0.20;;;;;;;;;;7388246;19;20141;-61
2023/01/13 16:45:25;;;;;;;0.20;0.20;;;;;;;;;;7387394;19;20125;-61
2023/01/13 16:47:51;;;;;;;0.30;0.30;;;;;;;;;;7376042;19;20125;-61
2023/01/13 16:50:27;;;;;;;0.30;0.30;;;;;;;;;;7384711;19;20117;-61
2023/01/13 16:52:53;;;;;;;0.30;0.30;;;;;;;;;;7381485;19;20119;-61
2023/01/13 16:55:18;;;;;;;0.30;0.30;;;;;;;;;;7377557;19;20500;-61
2023/01/13 16:57:43;;;;;;;0.50;0.50;;;;;;;;;;7374057;19;20156;-61
2023/01/13 17:00:11;;;;;;;0.40;0.40;;;;;;;;;;7375218;19;20226;-61
2023/01/13 17:02:36;;;;;;;0.37;0.37;;;;;;;;;;7385989;19;20529;-61
2023/01/13 17:05:01;;;;;;;0.40;0.40;;;;;;;;;;7389235;19;20615;-61
2023/01/13 17:07:27;;;;;;;0.40;0.40;;;;;;;;;;7385683;19;20141;-61
2023/01/13 17:09:53;;;;;;;0.27;0.27;;;;;;;;;;7389097;19;20232;-61
2023/01/13 17:12:18;;;;;;;0.20;0.20;;;;;;;;;;7384401;19;20129;-61
2023/01/13 17:14:43;;;;;;;0.30;0.30;;;;;;;;;;7385490;19;20178;-61
2023/01/13 17:17:20;;;;;;;0.30;0.30;;;;;;;;;;7380388;19;20141;-61
2023/01/13 17:19:45;;;;;;;0.30;0.30;;;;;;;;;;7377955;19;20133;-61
2023/01/13 17:22:10;;;;;;;0.40;0.40;;;;;;;;;;7373338;19;20121;-62
2023/01/13 17:24:36;;;;;;;0.40;0.40;;;;;;;;;;7381089;19;20149;-61
2023/01/13 17:27:02;;;;;;;0.30;0.30;;;;;;;;;;7361718;19;20144;-61
2023/01/13 17:29:27;;;;;;;0.30;0.30;;;;;;;;;;7354174;19;21805;-61
2023/01/13 17:31:53;;;;;;;0.67;0.67;;;;;;;;;;7358338;19;20125;-61
2023/01/13 17:34:19;;;;;;;0.30;0.30;;;;;;;;;;7373172;19;20186;-61
2023/01/13 17:36:44;;;;;;;0.30;0.30;;;;;;;;;;7384632;19;20501;-61
2023/01/13 17:41:55;;;;;;;0.30;0.30;;;;;;;;;;7386638;19;20140;-61
2023/01/13 17:44:21;;;;;;;0.20;0.20;;;;;;;;;;7380159;19;20183;-61
2023/01/13 17:46:47;;;;;;;0.30;0.30;;;;;;;;;;7382800;19;20121;-60
2023/01/13 17:49:14;;;;;;;0.37;0.37;;;;;;;;;;7373062;19;20644;-60
2023/01/13 17:51:39;;;;;;;0.30;0.30;;;;;;;;;;7385795;19;20125;-61
2023/01/13 17:54:05;;;;;;;0.20;0.20;;;;;;;;;;7385503;19;20706;-60
2023/01/13 17:56:30;;;;;;;0.27;0.27;;;;;;;;;;7387418;19;20441;-60
2023/01/13 17:58:56;;;;;;;0.30;0.30;;;;;;;;;;7388121;19;20585;-60
2023/01/13 18:01:21;;;;;;;0.20;0.20;;;;;;;;;;7384960;19;20575;-60
2023/01/13 18:03:47;;;;;;;0.20;0.20;;;;;;;;;;7385373;19;20158;-60
2023/01/13 18:06:18;;;;;;;0.30;0.30;;;;;;;;;;7381338;19;20635;-61
2023/01/13 18:08:44;;;;;;;0.40;0.40;;;;;;;;;;7387820;19;20769;-61
2023/01/13 18:11:09;;;;;;;0.20;0.20;;;;;;;;;;7382097;19;20121;-61
2023/01/13 18:13:36;;;;;;;0.20;0.20;;;;;;;;;;7381817;19;20166;-61
2023/01/13 18:16:10;;;;;;;0.30;0.30;;;;;;;;;;7379789;19;20614;-61
2023/01/13 18:18:35;;;;;;;0.30;0.30;;;;;;;;;;7390162;19;20132;-61
2023/01/13 18:29:13;;;;;;;0.20;0.20;;;;;;;;;;7376042;19;20137;-61
2023/01/13 18:31:38;;;;;;;0.40;0.40;;;;;;;;;;7389179;19;20605;-61
2023/01/13 18:34:03;;;;;;;0.30;0.30;;;;;;;;;;7386308;19;20169;-61
2023/01/13 18:36:29;;;;;;;0.33;0.33;;;;;;;;;;7373434;19;20136;-61
2023/01/13 18:38:54;;;;;;;0.30;0.30;;;;;;;;;;7378902;19;21212;-61
2023/01/13 18:44:03;;;;;;;0.30;0.30;;;;;;;;;;7377833;19;20516;-61
2023/01/13 18:46:28;;;;;;;0.20;0.20;;;;;;;;;;7393429;19;20128;-61
2023/01/13 18:48:54;;;;;;;0.20;0.20;;;;;;;;;;7381507;19;20495;-61
2023/01/13 18:51:19;;;;;;;0.27;0.27;;;;;;;;;;7388065;19;20132;-61
2023/01/13 18:53:44;;;;;;;0.30;0.30;;;;;;;;;;7378198;19;20516;-61
2023/01/13 18:56:11;;;;;;;1.90;0.80;;;;;;;;;;7383670;19;20131;-61
2023/01/13 18:58:51;;;;;;;0.40;0.40;;;;;;;;;;7381681;19;20472;-61
2023/01/13 19:01:26;;;;;;;0.30;0.30;;;;;;;;;;7382251;19;20113;-61
2023/01/13 19:03:55;;;;;;;0.20;0.20;;;;;;;;;;7379725;19;20220;-61
2023/01/13 19:06:22;;;;;;;0.30;0.30;;;;;;;;;;7372005;19;20509;-61
2023/01/13 19:08:52;;;;;;;0.20;0.20;;;;;;;;;;7364136;19;20135;-61
2023/01/13 19:11:19;;;;;;;0.30;0.30;;;;;;;;;;7370652;19;20121;-61
2023/01/13 19:13:44;;;;;;;0.30;0.30;;;;;;;;;;7365898;19;20179;-61
2023/01/13 19:16:10;;;;;;;0.33;0.33;;;;;;;;;;7369319;19;20113;-61
2023/01/13 19:18:35;;;;;;;0.30;0.30;;;;;;;;;;7377071;19;20125;-61
2023/01/13 19:21:02;;;;;;;0.20;0.20;;;;;;;;;;7377361;19;20456;-61
2023/01/13 19:23:27;;;;;;;2.30;1.20;;;;;;;;;;7366606;19;20176;-62
2023/01/13 19:25:53;;;;;;;0.30;0.30;;;;;;;;;;7368422;19;20149;-61
2023/01/13 19:28:18;;;;;;;0.30;0.30;;;;;;;;;;7369921;19;20627;-62
2023/01/13 19:30:43;;;;;;;0.53;0.53;;;;;;;;;;7377359;19;20676;-61
2023/01/13 19:33:09;;;;;;;0.40;0.40;;;;;;;;;;7378335;19;20489;-61
2023/01/13 19:35:36;;;;;;;0.30;0.30;;;;;;;;;;7377796;19;20113;-61
2023/01/13 19:38:01;;;;;;;0.20;0.20;;;;;;;;;;7379033;19;20129;-61
2023/01/13 19:40:26;;;;;;;1.20;0.67;;;;;;;;;;7384289;19;20113;-62
2023/01/13 19:45:35;;;;;;;0.30;0.30;;;;;;;;;;7372412;19;20140;-61
2023/01/13 19:48:03;;;;;;;0.27;0.27;;;;;;;;;;7369912;19;20469;-61
2023/01/13 19:50:28;;;;;;;0.37;0.37;;;;;;;;;;7379543;19;20520;-62
2023/01/13 19:52:54;;;;;;;0.33;0.33;;;;;;;;;;7385026;19;20121;-61
2023/01/13 19:55:19;;;;;;;0.30;0.30;;;;;;;;;;7365070;19;20132;-61
2023/01/13 19:57:44;;;;;;;0.30;0.30;;;;;;;;;;7376803;19;20523;-61
2023/01/13 20:00:12;;;;;;;0.50;0.50;;;;;;;;;;7378347;19;20121;-60
2023/01/13 20:02:43;;;;;;;0.20;0.20;;;;;;;;;;7348861;19;20594;-61
2023/01/13 20:05:09;;;;;;;0.50;0.50;;;;;;;;;;7376655;19;20149;-61
2023/01/13 20:07:34;;;;;;;7.63;0.70;;;;;;;;;;7368301;19;20129;-61
2023/01/13 20:10:00;;;;;;;1.17;0.50;;;;;;;;;;7358166;19;20149;-61
2023/01/13 20:12:27;;;;;;;3.30;0.90;;;;;;;;;;7364398;19;20121;-61
2023/01/13 20:14:52;;;;;;;0.20;0.20;;;;;;;;;;7377843;19;20229;-61
2023/01/13 20:17:19;;;;;;;0.20;0.20;;;;;;;;;;7369414;19;20161;-61
2023/01/13 20:19:45;;;;;;;0.30;0.30;;;;;;;;;;7382512;19;20157;-61
2023/01/13 20:22:11;;;;;;;0.30;0.30;;;;;;;;;;7371589;19;20113;-61
2023/01/13 20:24:36;;;;;;;0.30;0.30;;;;;;;;;;7357538;19;20602;-62
2023/01/13 20:27:02;;;;;;;0.30;0.30;;;;;;;;;;7359738;19;20129;-61
2023/01/13 20:29:28;;;;;;;0.63;0.63;;;;;;;;;;7360668;19;20141;-61
2023/01/13 20:31:54;;;;;;;0.30;0.30;;;;;;;;;;7361341;19;20129;-63
2023/01/13 20:34:19;;;;;;;0.20;0.20;;;;;;;;;;7370694;19;20599;-62
2023/01/13 20:36:46;;;;;;;0.30;0.30;;;;;;;;;;7373630;19;20135;-62
2023/01/13 20:39:17;;;;;;;0.80;0.80;;;;;;;;;;7381492;19;20130;-63
2023/01/13 20:44:26;;;;;;;0.30;0.30;;;;;;;;;;7384685;19;20665;-63
2023/01/13 20:46:53;;;;;;;0.30;0.30;;;;;;;;;;7381457;19;20129;-63
2023/01/13 20:49:19;;;;;;;0.20;0.20;;;;;;;;;;7371748;19;20496;-62
2023/01/13 20:51:44;;;;;;;0.30;0.30;;;;;;;;;;7379937;19;20127;-63
2023/01/13 20:54:10;;;;;;;0.30;0.30;;;;;;;;;;7378126;19;20171;-62
2023/01/13 20:56:35;;;;;;;0.40;0.40;;;;;;;;;;7384801;19;20121;-62
2023/01/13 20:59:01;;;;;;;0.50;0.50;;;;;;;;;;7383625;19;20125;-62
2023/01/13 21:01:26;;;;;;;0.30;0.30;;;;;;;;;;7374145;19;20113;-63
2023/01/13 21:03:55;;;;;;;3.43;0.97;;;;;;;;;;7385503;19;20155;-63
2023/01/13 21:06:21;;;;;;;0.30;0.30;;;;;;;;;;7383626;19;20127;-63
2023/01/13 21:08:47;;;;;;;0.60;0.60;;;;;;;;;;7371794;19;20141;-63
2023/01/13 21:11:16;;;;;;;0.23;0.23;;;;;;;;;;7382960;19;20132;-62
2023/01/13 21:16:25;;;;;;;0.30;0.30;;;;;;;;;;7376270;19;20478;-61
2023/01/13 21:19:09;;;;;;;1.23;0.67;;;;;;;;;;7382791;19;20196;-61
2023/01/13 21:21:35;;;;;;;0.20;0.20;;;;;;;;;;7388014;19;20152;-62
2023/01/13 21:24:01;;;;;;;0.37;0.37;;;;;;;;;;7384668;19;20170;-62
2023/01/13 21:26:26;;;;;;;0.30;0.30;;;;;;;;;;7366630;19;20140;-62
2023/01/13 21:28:58;;;;;;;0.30;0.30;;;;;;;;;;7373229;19;20547;-63
2023/01/13 21:31:24;;;;;;;0.40;0.40;;;;;;;;;;7382230;19;20587;-61
2023/01/13 21:33:53;;;;;;;0.30;0.30;;;;;;;;;;7385803;19;20162;-60
2023/01/13 21:36:18;;;;;;;0.30;0.30;;;;;;;;;;7388057;19;20237;-61
2023/01/13 21:38:44;;;;;;;0.30;0.30;;;;;;;;;;7383960;19;20121;-61